Time;durP1;ratioP1;P1;durP2;ratioP2;P2;SDS_P1;SDS_P2;PMS_P1;PMS_P2;Temp;Humidity;BMP_temperature;BMP_pressure;BME280_temperature;BME280_humidity;BME280_pressure;Samples;Min_cycle;Max_cycle;Signal;HPM_P1;HPM_P2
2023/07/20 00:01:31;;;;;;;6.60;3.22;;;;;;;19.30;91.79;100427.94;8422966;27;20044;-65
2023/07/20 00:05:32;;;;;;;5.30;2.50;;;;;;;19.21;93.91;100423.63;8420166;27;20090;-65
2023/07/20 00:09:32;;;;;;;7.00;2.53;;;;;;;19.07;95.42;100419.09;8409880;28;20475;-65
2023/07/20 00:13:33;;;;;;;6.30;2.67;;;;;;;18.99;96.81;100411.00;8410261;28;20040;-65
2023/07/20 00:17:33;;;;;;;6.43;2.55;;;;;;;18.89;98.10;100418.72;8413082;28;20040;-66
2023/07/20 00:21:34;;;;;;;7.03;2.42;;;;;;;18.82;99.34;100415.03;8408275;28;20038;-65
2023/07/20 00:25:35;;;;;;;3.15;2.28;;;;;;;18.61;100.00;100411.47;8408430;28;20168;-66
2023/07/20 00:29:35;;;;;;;4.43;2.30;;;;;;;18.63;100.00;100399.25;8409110;28;20256;-65
2023/07/20 00:33:36;;;;;;;4.00;2.40;;;;;;;18.59;100.00;100411.66;8413863;27;20036;-65
2023/07/20 00:37:38;;;;;;;5.15;2.53;;;;;;;18.63;100.00;100410.22;8407757;28;20040;-65
2023/07/20 00:41:39;;;;;;;5.60;2.50;;;;;;;18.57;100.00;100405.50;8407718;28;20032;-65
2023/07/20 00:45:40;;;;;;;6.47;3.28;;;;;;;18.53;100.00;100409.69;8410681;28;20067;-65
2023/07/20 00:49:41;;;;;;;5.22;3.10;;;;;;;18.39;100.00;100402.34;8431494;27;20028;-65
2023/07/20 00:53:41;;;;;;;6.07;3.35;;;;;;;18.27;100.00;100403.88;8407839;28;20554;-65
2023/07/20 00:57:42;;;;;;;7.72;3.13;;;;;;;18.25;100.00;100405.13;8408393;28;20044;-65
2023/07/20 01:01:42;;;;;;;7.75;3.13;;;;;;;18.10;100.00;100407.88;8408906;27;20168;-65
2023/07/20 01:06:11;;;;;;;5.07;3.05;;;;;;;17.83;100.00;100414.06;8412524;28;20039;-65
2023/07/20 01:10:23;;;;;;;6.80;3.30;;;;;;;17.88;100.00;100408.00;8376518;27;20079;-66
2023/07/20 01:14:25;;;;;;;5.85;3.05;;;;;;;18.03;100.00;100406.97;8374848;27;20178;-66
2023/07/20 01:18:25;;;;;;;5.35;3.00;;;;;;;18.07;100.00;100410.16;8405302;28;20082;-65
2023/07/20 01:27:01;;;;;;;9.93;3.38;;;;;;;18.14;100.00;100402.91;8368627;27;20463;-64
2023/07/20 01:31:24;;;;;;;8.35;3.50;;;;;;;18.17;100.00;100408.81;8358263;28;20415;-64
2023/07/20 01:35:30;;;;;;;4.57;3.40;;;;;;;18.11;100.00;100404.09;8348041;28;20411;-64
2023/07/20 01:39:33;;;;;;;8.73;3.67;;;;;;;18.12;100.00;100403.09;8347092;28;20047;-64
2023/07/20 01:43:34;;;;;;;8.65;3.40;;;;;;;17.97;100.00;100391.31;8347122;28;20124;-64
2023/07/20 01:47:34;;;;;;;10.98;3.92;;;;;;;17.91;100.00;100403.03;8361013;28;20045;-64
2023/07/20 01:51:35;;;;;;;6.72;4.03;;;;;;;17.83;100.00;100388.56;8374992;28;20514;-64
2023/07/20 01:55:35;;;;;;;7.80;3.67;;;;;;;17.82;100.00;100393.22;8367980;28;20538;-64
2023/07/20 01:59:35;;;;;;;6.05;3.97;;;;;;;17.78;100.00;100386.41;8367414;28;20474;-65
2023/07/20 02:03:36;;;;;;;8.70;4.47;;;;;;;17.63;100.00;100393.81;8362328;28;20455;-65
2023/07/20 02:07:37;;;;;;;5.45;3.67;;;;;;;17.62;100.00;100392.09;8367313;28;20041;-65
2023/07/20 02:11:37;;;;;;;9.27;3.53;;;;;;;17.53;100.00;100387.75;8367447;28;20041;-65
2023/07/20 02:15:38;;;;;;;8.88;3.72;;;;;;;17.51;100.00;100384.38;8352189;28;20400;-65
2023/07/20 02:19:40;;;;;;;7.45;3.63;;;;;;;17.48;100.00;100390.22;8365194;28;20033;-65
2023/07/20 02:23:41;;;;;;;8.20;3.58;;;;;;;17.56;100.00;100392.84;8361154;28;20045;-65
2023/07/20 02:27:42;;;;;;;5.47;3.83;;;;;;;17.43;100.00;100393.50;8366658;28;20033;-65
2023/07/20 02:31:42;;;;;;;6.90;3.92;;;;;;;17.44;100.00;100394.34;8363416;28;20120;-63
2023/07/20 02:35:43;;;;;;;5.72;3.75;;;;;;;17.41;100.00;100394.69;8357809;28;20041;-64
2023/07/20 02:39:43;;;;;;;7.80;3.58;;;;;;;17.33;100.00;100392.88;8363128;28;20033;-64
2023/07/20 02:43:44;;;;;;;7.30;3.80;;;;;;;17.52;100.00;100391.53;8343814;28;20040;-64
2023/07/20 02:47:44;;;;;;;6.88;3.35;;;;;;;17.77;100.00;100401.13;8342814;28;20052;-64
2023/07/20 02:51:46;;;;;;;5.18;3.15;;;;;;;17.86;100.00;100405.47;8344041;28;20044;-60
2023/07/20 02:55:47;;;;;;;6.10;3.22;;;;;;;17.98;100.00;100398.47;8344024;28;20033;-60
2023/07/20 02:59:47;;;;;;;6.00;3.40;;;;;;;18.03;100.00;100406.97;8342218;28;20033;-60
2023/07/20 03:03:48;;;;;;;9.68;3.05;;;;;;;18.08;100.00;100407.22;8341098;28;20051;-59
2023/07/20 03:07:49;;;;;;;8.10;2.63;;;;;;;18.11;100.00;100403.28;8343488;28;20107;-60
2023/07/20 03:11:50;;;;;;;9.52;3.63;;;;;;;18.18;100.00;100407.78;8344164;28;20044;-60
2023/07/20 03:15:52;;;;;;;5.40;2.85;;;;;;;18.32;100.00;100404.16;8342145;28;20087;-59
2023/07/20 03:19:53;;;;;;;5.60;2.60;;;;;;;18.33;100.00;100402.28;8342916;28;20068;-60
2023/07/20 03:23:53;;;;;;;5.15;3.00;;;;;;;18.27;99.70;100412.09;8342896;28;20052;-59
2023/07/20 03:27:54;;;;;;;6.75;3.10;;;;;;;18.26;99.73;100415.88;8360924;28;20056;-60
2023/07/20 03:31:54;;;;;;;9.77;2.78;;;;;;;18.31;99.98;100410.69;8319910;28;20071;-59
2023/07/20 03:35:56;;;;;;;5.47;3.15;;;;;;;18.31;99.58;100405.22;8336554;28;20530;-59
2023/07/20 03:39:56;;;;;;;11.05;3.08;;;;;;;18.33;98.90;100407.75;8342138;28;20043;-59
2023/07/20 03:43:57;;;;;;;7.55;2.92;;;;;;;18.40;98.57;100420.50;8336765;28;20053;-59
2023/07/20 03:47:58;;;;;;;9.55;3.42;;;;;;;18.43;98.69;100409.16;8341103;28;20131;-59
2023/07/20 03:51:58;;;;;;;7.75;2.80;;;;;;;18.32;98.84;100414.25;8342216;28;20542;-59
2023/07/20 03:55:58;;;;;;;4.40;2.50;;;;;;;18.33;98.67;100418.69;8342133;28;20039;-59
2023/07/20 03:59:59;;;;;;;8.35;2.95;;;;;;;18.29;98.66;100423.69;8338545;28;20049;-59
2023/07/20 04:03:59;;;;;;;6.28;2.70;;;;;;;18.33;97.97;100427.75;8341020;28;20040;-59
2023/07/20 04:08:00;;;;;;;4.63;2.50;;;;;;;18.29;98.31;100429.16;8348996;28;20052;-59
2023/07/20 04:12:00;;;;;;;10.63;2.50;;;;;;;18.32;97.96;100439.72;8341519;28;20070;-59
2023/07/20 04:16:02;;;;;;;6.55;2.53;;;;;;;18.28;98.34;100432.97;8338362;28;20060;-59
2023/07/20 04:20:04;;;;;;;5.32;2.92;;;;;;;18.34;97.84;100436.81;8341379;28;20522;-59
2023/07/20 04:24:04;;;;;;;10.85;3.03;;;;;;;18.22;98.05;100433.72;8340989;28;20041;-59
2023/07/20 04:28:08;;;;;;;10.38;3.25;;;;;;;18.32;98.07;100442.47;8337237;28;20449;-59
2023/07/20 04:32:10;;;;;;;8.55;3.00;;;;;;;18.31;98.15;100440.78;8336734;28;20060;-59
2023/07/20 04:36:12;;;;;;;7.35;3.00;;;;;;;18.25;97.97;100444.28;8340683;28;20044;-60
2023/07/20 04:40:15;;;;;;;12.68;3.40;;;;;;;18.30;98.45;100436.34;8356816;28;20150;-61
2023/07/20 04:44:16;;;;;;;5.83;3.10;;;;;;;18.28;98.38;100449.38;8356869;28;20558;-60
2023/07/20 04:48:17;;;;;;;7.82;3.40;;;;;;;18.33;98.29;100446.91;8337057;28;20408;-60
2023/07/20 04:52:24;;;;;;;13.15;3.53;;;;;;;18.34;97.70;100448.63;8340359;28;20505;-59
2023/07/20 04:56:25;;;;;;;9.88;3.90;;;;;;;18.35;98.30;100446.72;8337031;28;20487;-60
2023/07/20 05:00:27;;;;;;;6.57;3.22;;;;;;;18.45;97.43;100439.91;8325966;28;20296;-59
2023/07/20 05:04:28;;;;;;;8.88;3.63;;;;;;;18.63;96.87;100447.72;8335637;28;20034;-60
2023/07/20 05:08:28;;;;;;;8.55;3.70;;;;;;;18.55;97.76;100445.97;8336431;28;20041;-59
2023/07/20 05:12:29;;;;;;;11.55;3.80;;;;;;;18.54;97.80;100444.25;8335570;28;20033;-59
2023/07/20 05:16:29;;;;;;;17.63;4.68;;;;;;;18.54;98.21;100449.72;8352626;28;20034;-60
2023/07/20 05:20:36;;;;;;;8.65;4.20;;;;;;;18.58;97.98;100451.03;8327828;28;20047;-60
2023/07/20 05:24:36;;;;;;;12.02;4.55;;;;;;;18.58;98.15;100445.56;8333836;28;20037;-59
2023/07/20 05:28:37;;;;;;;16.25;4.55;;;;;;;18.68;97.63;100446.09;8333021;28;20052;-60
2023/07/20 05:32:38;;;;;;;25.05;5.97;;;;;;;18.66;97.54;100447.34;8325985;28;20089;-59
2023/07/20 05:36:38;;;;;;;31.88;6.40;;;;;;;18.60;98.00;100440.72;8365651;28;20060;-59
2023/07/20 05:40:40;;;;;;;31.45;6.80;;;;;;;18.51;98.57;100443.78;8368653;28;20274;-59
2023/07/20 05:44:41;;;;;;;18.02;5.53;;;;;;;18.69;98.06;100456.00;8337157;28;20146;-59
2023/07/20 05:48:42;;;;;;;13.40;5.63;;;;;;;18.89;97.35;100445.25;8337179;28;20384;-57
2023/07/20 05:52:42;;;;;;;14.80;6.10;;;;;;;18.94;96.52;100451.00;8334550;28;20041;-60
2023/07/20 05:56:43;;;;;;;12.55;6.15;;;;;;;18.96;96.61;100448.88;8334007;28;20049;-60
2023/07/20 06:00:43;;;;;;;13.55;6.55;;;;;;;18.90;96.49;100445.06;8328745;28;20395;-59
2023/07/20 06:04:44;;;;;;;12.38;6.88;;;;;;;18.93;95.74;100463.84;8336665;28;20041;-59
2023/07/20 06:08:45;;;;;;;13.80;6.55;;;;;;;19.19;95.82;100472.28;8336129;28;20045;-59
2023/07/20 06:12:46;;;;;;;15.07;6.28;;;;;;;19.35;93.39;100472.06;8336339;28;20044;-59
2023/07/20 06:16:46;;;;;;;15.82;6.80;;;;;;;19.49;92.61;100476.59;8342052;28;20045;-59
2023/07/20 06:20:50;;;;;;;14.68;6.20;;;;;;;19.79;92.69;100473.66;8338584;28;20451;-59
2023/07/20 06:24:51;;;;;;;;;;;;;;;19.75;92.05;100469.63;8342325;28;20048;-59
2023/07/20 06:28:51;;;;;;;12.82;6.85;;;;;;;19.57;91.18;100481.09;8338654;28;19921;-59
2023/07/20 06:32:52;;;;;;;16.10;6.88;;;;;;;19.36;92.67;100476.50;8335400;28;20044;-59
2023/07/20 06:36:52;;;;;;;11.63;6.03;;;;;;;19.30;93.54;100485.53;8338106;28;20133;-59
2023/07/20 06:40:52;;;;;;;13.65;6.85;;;;;;;19.46;92.83;100481.66;8341343;28;20041;-60
2023/07/20 06:44:53;;;;;;;80.38;10.57;;;;;;;19.65;91.25;100480.09;8339988;28;20433;-59
2023/07/20 06:48:54;;;;;;;119.00;12.98;;;;;;;19.92;89.53;100473.75;8341823;28;20080;-59
2023/07/20 06:52:54;;;;;;;17.70;5.82;;;;;;;20.17;87.84;100477.72;8346667;28;20132;-59
2023/07/20 06:56:55;;;;;;;12.43;6.20;;;;;;;20.30;86.09;100486.00;8338432;28;20041;-59
2023/07/20 07:00:55;;;;;;;9.85;5.75;;;;;;;20.35;88.11;100486.25;8338424;28;20563;-59
2023/07/20 07:04:56;;;;;;;10.43;6.20;;;;;;;20.22;86.07;100491.69;8340883;28;20045;-59
2023/07/20 07:08:56;;;;;;;10.32;5.32;;;;;;;20.28;86.44;100496.38;8340457;28;20625;-59
2023/07/20 07:12:57;;;;;;;7.05;5.35;;;;;;;20.34;85.58;100495.56;8346266;28;20534;-59
2023/07/20 07:16:57;;;;;;;8.88;4.88;;;;;;;20.37;85.65;100506.13;8337391;28;20179;-59
2023/07/20 07:20:58;;;;;;;9.30;5.88;;;;;;;20.36;83.79;100498.94;8339833;28;20064;-59
2023/07/20 07:24:58;;;;;;;7.90;5.05;;;;;;;20.56;82.81;100494.38;8339860;28;20041;-59
2023/07/20 07:28:59;;;;;;;8.05;5.03;;;;;;;20.62;83.07;100499.06;8339645;28;20047;-59
2023/07/20 07:32:59;;;;;;;9.32;4.97;;;;;;;20.60;83.26;100502.00;8356468;28;20123;-59
2023/07/20 07:37:00;;;;;;;9.45;5.40;;;;;;;20.27;84.18;100490.03;8339369;28;20494;-59
2023/07/20 07:41:00;;;;;;;10.27;5.30;;;;;;;20.77;82.54;100491.50;8339426;28;20083;-60
2023/07/20 07:45:01;;;;;;;7.97;4.45;;;;;;;21.55;80.16;100497.13;8336298;28;20041;-59
2023/07/20 07:49:01;;;;;;;9.10;4.20;;;;;;;21.73;76.57;100499.25;8334686;28;20514;-60
2023/07/20 07:53:02;;;;;;;8.57;4.85;;;;;;;21.92;73.82;100504.75;8334131;28;20044;-60
2023/07/20 07:57:03;;;;;;;13.30;4.28;;;;;;;22.25;73.48;100504.69;8329122;28;20423;-60
2023/07/20 08:01:04;;;;;;;13.00;4.65;;;;;;;22.49;73.32;100507.59;8328476;28;20048;-59
2023/07/20 08:05:05;;;;;;;14.77;4.13;;;;;;;22.81;72.54;100506.59;8335456;28;20033;-60
2023/07/20 08:09:05;;;;;;;6.57;3.33;;;;;;;22.37;71.27;100506.56;8336673;28;20575;-59
2023/07/20 08:13:06;;;;;;;5.50;3.13;;;;;;;22.06;72.49;100511.94;8332351;28;20052;-59
2023/07/20 08:17:06;;;;;;;4.55;3.10;;;;;;;22.47;70.10;100508.84;8330569;28;20601;-60
2023/07/20 08:21:07;;;;;;;8.70;3.53;;;;;;;22.59;72.57;100519.03;8334456;28;20037;-60
2023/07/20 08:25:08;;;;;;;5.60;3.55;;;;;;;22.54;70.45;100516.06;8334737;28;20041;-59
2023/07/20 08:29:08;;;;;;;6.90;4.40;;;;;;;22.25;70.44;100516.56;8335902;28;20433;-59
2023/07/20 08:33:13;;;;;;;6.30;2.58;;;;;;;22.08;71.47;100509.81;8330278;28;20071;-60
2023/07/20 08:37:13;;;;;;;3.63;2.40;;;;;;;21.92;71.20;100521.28;8335309;28;20041;-61
2023/07/20 08:41:14;;;;;;;3.85;2.10;;;;;;;22.42;70.74;100516.94;8350489;28;20349;-60
2023/07/20 08:45:17;;;;;;;4.75;2.00;;;;;;;22.53;70.22;100519.88;8330263;28;20500;-60
2023/07/20 08:49:18;;;;;;;4.22;2.30;;;;;;;21.95;71.49;100526.34;8335082;28;20038;-60
2023/07/20 08:53:20;;;;;;;4.07;1.90;;;;;;;22.04;71.03;100518.72;8335055;28;20510;-60
2023/07/20 08:57:21;;;;;;;3.60;1.90;;;;;;;22.41;69.77;100521.59;8333832;28;20053;-59
2023/07/20 09:01:22;;;;;;;7.25;2.10;;;;;;;22.60;69.17;100504.16;8329382;28;20033;-59
2023/07/20 09:05:25;;;;;;;4.47;2.40;;;;;;;22.75;68.55;100518.50;8327130;28;20048;-59
2023/07/20 09:09:25;;;;;;;7.13;2.10;;;;;;;23.18;66.63;100525.06;8334637;28;20045;-59
2023/07/20 09:13:26;;;;;;;4.13;2.10;;;;;;;23.77;64.55;100512.75;8339596;28;20084;-60
2023/07/20 09:17:27;;;;;;;311.13;27.52;;;;;;;24.38;62.80;100516.41;8329296;28;20037;-59
2023/07/20 09:21:30;;;;;;;6.03;1.73;;;;;;;24.19;60.71;100511.94;8336408;28;20029;-60
2023/07/20 09:25:30;;;;;;;2.80;2.03;;;;;;;24.39;63.30;100520.84;8334278;28;20033;-59
2023/07/20 09:29:31;;;;;;;10.13;1.88;;;;;;;23.92;61.19;100504.97;8333514;28;20107;-60
2023/07/20 09:33:31;;;;;;;6.78;1.80;;;;;;;23.46;62.14;100504.53;8327104;28;20051;-59
2023/07/20 09:37:33;;;;;;;3.47;1.50;;;;;;;23.97;62.55;100499.66;8336478;28;20052;-59
2023/07/20 09:41:42;;;;;;;5.10;1.65;;;;;;;24.10;59.18;100499.50;8334211;28;20377;-60
2023/07/20 09:45:42;;;;;;;4.03;1.67;;;;;;;24.83;59.42;100504.78;8332135;28;20137;-62
2023/07/20 09:49:43;;;;;;;6.63;2.03;;;;;;;25.34;58.51;100496.00;8340625;28;20041;-60
2023/07/20 09:53:44;;;;;;;3.58;1.73;;;;;;;25.53;57.24;100500.41;8355621;28;20056;-60
2023/07/20 09:57:45;;;;;;;6.60;1.88;;;;;;;25.58;55.79;100497.72;8339817;28;20071;-59
2023/07/20 10:01:46;;;;;;;5.30;1.33;;;;;;;24.91;57.45;100496.19;8345590;28;20040;-60
2023/07/20 10:05:56;;;;;;;5.35;1.67;;;;;;;24.26;59.71;100501.66;8340415;28;20372;-60
2023/07/20 10:10:01;;;;;;;4.72;1.60;;;;;;;24.11;60.02;100495.66;8341516;28;20159;-59
2023/07/20 10:14:06;;;;;;;2.63;1.80;;;;;;;23.82;61.04;100510.16;8333776;28;20069;-59
2023/07/20 10:18:12;;;;;;;2.63;1.70;;;;;;;23.30;61.87;100505.94;8338760;28;20341;-59
2023/07/20 10:22:16;;;;;;;4.32;1.45;;;;;;;23.77;62.61;100502.56;8332245;28;20055;-60
2023/07/20 10:26:16;;;;;;;3.25;1.20;;;;;;;26.66;54.73;100491.44;8339257;28;20550;-60
2023/07/20 10:30:18;;;;;;;4.72;1.40;;;;;;;27.77;51.96;100493.56;8343959;28;20419;-59
2023/07/20 10:34:18;;;;;;;5.97;1.33;;;;;;;27.18;54.02;100500.56;8339793;28;20048;-59
2023/07/20 10:38:19;;;;;;;1.60;0.90;;;;;;;28.46;48.48;100479.09;8339217;28;20052;-60
2023/07/20 10:42:20;;;;;;;26.00;2.28;;;;;;;29.92;47.59;100470.38;8339284;28;20043;-59
2023/07/20 10:46:43;;;;;;;6.70;1.20;;;;;;;28.85;47.97;100477.94;8336159;28;20048;-59
2023/07/20 10:50:44;;;;;;;3.40;1.65;;;;;;;26.68;52.25;100469.88;8359760;28;20677;-60
2023/07/20 10:54:48;;;;;;;4.88;1.60;;;;;;;26.07;53.84;100464.06;8338378;28;20448;-59
2023/07/20 10:58:48;;;;;;;2.50;1.10;;;;;;;25.51;55.80;100465.69;8338409;28;20047;-59
2023/07/20 11:02:49;;;;;;;2.30;1.20;;;;;;;25.40;55.39;100461.81;8330828;28;20033;-60
2023/07/20 11:06:57;;;;;;;3.10;1.45;;;;;;;24.79;56.56;100464.00;8338468;28;20034;-60
2023/07/20 11:11:21;;;;;;;3.80;1.10;;;;;;;25.41;54.73;100466.31;8334757;28;20064;-60
2023/07/20 11:15:22;;;;;;;2.90;0.85;;;;;;;25.62;52.42;100460.19;8337597;28;20087;-64
2023/07/20 11:19:24;;;;;;;1.67;0.60;;;;;;;26.30;52.19;100466.81;8337349;28;20037;-65
2023/07/20 11:23:25;;;;;;;6.15;1.08;;;;;;;26.55;51.58;100461.81;8337783;28;20044;-64
2023/07/20 11:27:28;;;;;;;2.47;0.80;;;;;;;25.93;52.46;100450.66;8337731;28;20040;-64
2023/07/20 11:31:28;;;;;;;5.00;1.10;;;;;;;25.69;53.85;100460.91;8331599;28;20038;-64
2023/07/20 11:35:28;;;;;;;4.93;1.00;;;;;;;25.64;53.46;100455.25;8337176;28;20123;-64
2023/07/20 11:39:29;;;;;;;8.63;1.13;;;;;;;28.79;49.26;100451.13;8336960;28;20044;-65
2023/07/20 11:43:30;;;;;;;3.50;0.85;;;;;;;30.24;45.72;100452.47;8335179;28;20033;-65
2023/07/20 11:47:31;;;;;;;2.50;0.90;;;;;;;30.26;44.27;100449.41;8335667;28;20046;-64
2023/07/20 11:51:32;;;;;;;91.45;9.00;;;;;;;28.81;46.88;100448.91;8336159;28;20092;-64
2023/07/20 11:55:32;;;;;;;39.28;5.55;;;;;;;29.79;44.84;100437.38;8336164;28;20048;-64
2023/07/20 11:59:33;;;;;;;30.10;4.25;;;;;;;30.02;44.32;100442.53;8334996;28;20033;-64
2023/07/20 12:03:34;;;;;;;9.23;0.93;;;;;;;29.41;45.43;100438.44;8328715;28;20041;-64
2023/07/20 12:07:36;;;;;;;3.00;0.60;;;;;;;29.96;44.22;100433.31;8334445;28;20049;-64
2023/07/20 12:11:38;;;;;;;27.52;2.80;;;;;;;29.08;45.00;100441.44;8335059;28;20076;-64
2023/07/20 12:15:38;;;;;;;14.82;1.58;;;;;;;27.62;47.93;100440.50;8332062;28;20033;-64
2023/07/20 12:19:40;;;;;;;0.82;0.60;;;;;;;26.55;50.62;100438.75;8335774;28;20043;-64
2023/07/20 12:23:42;;;;;;;1.33;0.88;;;;;;;25.93;51.68;100428.50;8335897;28;20044;-64
2023/07/20 12:27:44;;;;;;;4.25;1.08;;;;;;;25.71;52.11;100431.03;8335770;28;20040;-63
2023/07/20 12:31:45;;;;;;;2.28;0.90;;;;;;;25.11;53.75;100429.50;8331480;28;20045;-64
2023/07/20 12:35:46;;;;;;;3.85;1.40;;;;;;;24.93;53.90;100427.66;8335226;28;20049;-63
2023/07/20 12:39:47;;;;;;;1.83;1.05;;;;;;;25.10;53.76;100426.97;8335566;28;20123;-64
2023/07/20 12:43:47;;;;;;;2.40;1.10;;;;;;;24.76;54.37;100425.75;8335388;28;20033;-64
2023/07/20 12:47:48;;;;;;;3.85;1.20;;;;;;;24.71;54.64;100422.88;8324629;28;20041;-64
2023/07/20 12:51:48;;;;;;;10.35;1.30;;;;;;;24.54;54.62;100421.78;8331273;28;20049;-64
2023/07/20 12:55:48;;;;;;;10.27;1.48;;;;;;;24.58;54.55;100421.09;8335390;28;20061;-64
2023/07/20 12:59:49;;;;;;;3.30;0.80;;;;;;;24.72;54.07;100419.00;8334330;28;20482;-65
2023/07/20 13:03:49;;;;;;;2.20;0.80;;;;;;;24.81;53.87;100420.38;8330611;28;20033;-63
2023/07/20 13:07:50;;;;;;;3.03;1.13;;;;;;;24.78;53.88;100418.06;8334842;28;20068;-62
2023/07/20 13:11:52;;;;;;;9.55;1.38;;;;;;;24.62;55.29;100421.47;8333399;28;20082;-64
2023/07/20 13:15:54;;;;;;;2.58;0.85;;;;;;;24.40;53.52;100414.75;8329448;28;20406;-64
2023/07/20 13:19:55;;;;;;;2.97;1.00;;;;;;;24.41;53.43;100416.44;8334241;28;20033;-61
2023/07/20 13:23:56;;;;;;;2.15;1.00;;;;;;;24.54;52.88;100410.72;8331621;28;20106;-61
2023/07/20 13:27:57;;;;;;;12.98;1.35;;;;;;;25.16;52.71;100410.25;8333179;28;20045;-61
2023/07/20 13:31:57;;;;;;;3.45;0.88;;;;;;;25.58;52.14;100400.81;8327468;28;20029;-61
2023/07/20 13:35:57;;;;;;;7.07;1.42;;;;;;;25.77;52.10;100401.53;8334158;28;20510;-62
2023/07/20 13:39:58;;;;;;;9.75;1.67;;;;;;;25.63;52.12;100395.41;8332635;28;20124;-60
2023/07/20 13:43:58;;;;;;;15.82;1.85;;;;;;;26.10;50.07;100391.50;8333157;28;20037;-61
2023/07/20 13:47:59;;;;;;;2.75;1.23;;;;;;;25.61;50.45;100389.25;8329963;28;20068;-61
2023/07/20 13:51:59;;;;;;;2.35;1.00;;;;;;;25.30;50.92;100384.03;8327249;28;20435;-61
2023/07/20 13:56:00;;;;;;;5.53;1.10;;;;;;;25.24;50.93;100379.44;8333375;28;20042;-60
2023/07/20 14:00:01;;;;;;;2.08;0.90;;;;;;;25.29;50.55;100379.59;8331762;28;20052;-60
2023/07/20 14:04:24;;;;;;;1.60;1.00;;;;;;;25.15;50.58;100369.00;8390522;27;20396;-60
2023/07/20 14:08:24;;;;;;;2.42;1.13;;;;;;;25.46;50.13;100363.97;8377633;28;20536;-60
2023/07/20 14:12:25;;;;;;;2.83;1.23;;;;;;;25.22;50.09;100358.66;8385400;27;20087;-60
2023/07/20 14:16:25;;;;;;;1.52;0.93;;;;;;;25.32;49.87;100354.22;8379813;27;20040;-60
2023/07/20 14:20:26;;;;;;;1.88;0.70;;;;;;;25.25;47.62;100353.44;8380143;28;20565;-60
2023/07/20 14:24:26;;;;;;;2.13;0.95;;;;;;;25.18;48.39;100343.59;8379367;28;20033;-60
2023/07/20 14:28:27;;;;;;;1.95;1.10;;;;;;;25.66;50.23;100345.06;8379342;27;20047;-60
2023/07/20 14:32:27;;;;;;;2.03;1.17;;;;;;;25.55;49.75;100345.91;8378366;27;20045;-61
2023/07/20 14:36:28;;;;;;;2.03;0.88;;;;;;;25.60;47.89;100340.50;8378150;28;20036;-60
2023/07/20 14:40:29;;;;;;;3.10;0.70;;;;;;;25.61;46.83;100342.16;8378025;27;20049;-60
2023/07/20 14:44:29;;;;;;;7.70;0.98;;;;;;;25.99;46.22;100345.28;8378611;27;20132;-61
2023/07/20 14:48:30;;;;;;;2.38;0.82;;;;;;;26.13;45.93;100340.31;8377943;28;20041;-64
2023/07/20 14:52:30;;;;;;;1.00;0.60;;;;;;;25.82;44.77;100333.22;8406442;27;20128;-64
2023/07/20 14:56:31;;;;;;;3.50;1.00;;;;;;;25.50;45.15;100329.19;8378278;27;20037;-64
2023/07/20 15:00:31;;;;;;;3.35;0.77;;;;;;;25.65;46.45;100326.78;8376321;27;20045;-63
2023/07/20 15:04:32;;;;;;;5.78;0.68;;;;;;;25.50;45.77;100323.66;8377314;27;20051;-63
2023/07/20 15:08:32;;;;;;;2.25;0.90;;;;;;;25.59;46.06;100321.34;8378871;27;20041;-63
2023/07/20 15:12:33;;;;;;;1.40;1.20;;;;;;;25.62;46.36;100315.31;8368084;27;20517;-63
2023/07/20 15:16:35;;;;;;;1.08;0.70;;;;;;;25.69;47.04;100305.81;8353627;28;20139;-64
2023/07/20 15:20:35;;;;;;;11.90;1.55;;;;;;;25.64;48.56;100308.44;8353940;28;20533;-63
2023/07/20 15:24:36;;;;;;;3.42;1.33;;;;;;;25.72;49.59;100305.31;8353545;28;20469;-64
2023/07/20 15:28:37;;;;;;;1.65;0.88;;;;;;;25.47;48.54;100301.13;8354581;28;20106;-64
2023/07/20 15:32:39;;;;;;;5.28;0.82;;;;;;;25.44;49.11;100296.94;8352126;28;20044;-64
2023/07/20 15:36:40;;;;;;;1.00;0.88;;;;;;;25.33;49.09;100278.41;8348910;28;20135;-64
2023/07/20 15:40:43;;;;;;;4.43;0.77;;;;;;;25.23;49.42;100275.38;8353442;28;20036;-63
2023/07/20 15:44:44;;;;;;;4.63;0.80;;;;;;;25.33;49.43;100267.31;8351196;28;20042;-63
2023/07/20 15:48:45;;;;;;;1.20;0.80;;;;;;;25.28;48.98;100266.34;8368422;28;20044;-63
2023/07/20 15:52:46;;;;;;;1.80;1.27;;;;;;;25.39;49.00;100259.97;8354636;28;20128;-63
2023/07/20 15:56:47;;;;;;;1.55;0.73;;;;;;;25.49;49.14;100254.69;8354551;28;20095;-64
2023/07/20 16:00:53;;;;;;;7.43;0.90;;;;;;;25.51;49.47;100263.56;8349989;28;20030;-63
2023/07/20 16:04:53;;;;;;;3.88;1.10;;;;;;;25.44;49.70;100258.19;8354949;28;20044;-63
2023/07/20 16:08:54;;;;;;;1.75;0.88;;;;;;;25.35;49.63;100261.53;8351878;28;20044;-63
2023/07/20 16:12:54;;;;;;;2.63;0.90;;;;;;;25.37;49.60;100257.44;8353791;28;20072;-63
2023/07/20 16:16:55;;;;;;;1.92;0.90;;;;;;;25.33;49.35;100261.78;8350427;28;20392;-62
2023/07/20 16:20:56;;;;;;;3.22;0.93;;;;;;;25.37;49.79;100256.63;8352838;28;20624;-63
2023/07/20 16:24:57;;;;;;;1.95;1.15;;;;;;;25.33;49.04;100256.25;8353302;28;20124;-63
2023/07/20 16:28:58;;;;;;;4.90;0.85;;;;;;;25.25;49.44;100247.44;8351583;28;20040;-63
2023/07/20 16:32:58;;;;;;;3.10;1.10;;;;;;;25.08;49.91;100250.09;8349720;28;20123;-63
2023/07/20 16:36:59;;;;;;;3.92;0.70;;;;;;;25.02;49.60;100242.75;8351858;28;20064;-63
2023/07/20 16:41:00;;;;;;;1.52;0.80;;;;;;;24.92;50.04;100237.00;8351557;28;20060;-63
2023/07/20 16:45:00;;;;;;;2.63;0.73;;;;;;;24.88;50.67;100241.31;8348549;28;20051;-63
2023/07/20 16:49:04;;;;;;;2.70;0.60;;;;;;;24.92;50.56;100237.00;8351902;28;20051;-63
2023/07/20 16:53:04;;;;;;;1.85;0.70;;;;;;;24.86;50.43;100237.97;8350710;28;20076;-63
2023/07/20 16:57:05;;;;;;;1.75;0.90;;;;;;;24.72;50.59;100236.50;8351906;28;20041;-64
2023/07/20 17:01:06;;;;;;;0.90;0.60;;;;;;;24.73;50.83;100235.44;8349698;28;20048;-63
2023/07/20 17:05:09;;;;;;;4.53;0.98;;;;;;;24.63;51.42;100235.13;8349554;28;20045;-64
2023/07/20 17:09:10;;;;;;;1.00;0.80;;;;;;;24.68;51.22;100232.53;8350124;28;20052;-64
2023/07/20 17:13:10;;;;;;;4.78;0.90;;;;;;;24.66;50.97;100226.38;8350337;28;20037;-63
2023/07/20 17:17:10;;;;;;;1.38;0.70;;;;;;;24.52;52.31;100235.97;8348142;28;20110;-64
2023/07/20 17:21:11;;;;;;;5.25;1.10;;;;;;;24.36;52.56;100234.72;8350701;28;20352;-63
2023/07/20 17:25:11;;;;;;;7.10;0.70;;;;;;;24.29;52.28;100235.91;8351436;28;20067;-63
2023/07/20 17:29:12;;;;;;;1.63;0.80;;;;;;;24.33;53.19;100242.63;8350314;28;20120;-63
2023/07/20 17:33:14;;;;;;;1.40;0.60;;;;;;;24.32;53.96;100232.66;8350020;28;20055;-62
2023/07/20 17:37:16;;;;;;;2.45;0.80;;;;;;;24.32;54.35;100225.22;8350646;28;20550;-63
2023/07/20 17:41:16;;;;;;;2.83;0.50;;;;;;;24.25;54.11;100224.50;8350195;28;20044;-63
2023/07/20 17:45:17;;;;;;;1.85;0.70;;;;;;;24.19;54.71;100224.59;8350410;28;20041;-63
2023/07/20 17:49:18;;;;;;;4.05;0.60;;;;;;;24.06;54.61;100219.28;8350064;28;20033;-63
2023/07/20 17:53:18;;;;;;;1.55;0.68;;;;;;;24.08;54.89;100211.56;8382374;28;20071;-63
2023/07/20 17:57:18;;;;;;;1.50;0.77;;;;;;;24.05;54.53;100212.03;8351011;28;20037;-63
2023/07/20 18:01:19;;;;;;;2.17;0.65;;;;;;;24.08;55.16;100217.09;8348465;28;20044;-63
2023/07/20 18:05:20;;;;;;;2.30;0.70;;;;;;;23.97;55.23;100209.63;8350259;28;20040;-63
2023/07/20 18:09:20;;;;;;;2.20;0.65;;;;;;;23.93;54.80;100213.88;8353435;28;20044;-63
2023/07/20 18:13:21;;;;;;;3.33;0.88;;;;;;;23.90;55.37;100208.81;8353374;28;20098;-62
2023/07/20 18:17:21;;;;;;;1.35;0.70;;;;;;;23.78;54.93;100216.25;8349416;28;20115;-63
2023/07/20 18:21:21;;;;;;;4.57;0.95;;;;;;;23.72;55.31;100217.19;8349701;28;20052;-63
2023/07/20 18:25:22;;;;;;;2.20;0.90;;;;;;;23.63;55.49;100218.56;8349540;28;20040;-63
2023/07/20 18:29:24;;;;;;;1.40;0.65;;;;;;;23.58;55.42;100207.38;8349598;28;20337;-62
2023/07/20 18:33:24;;;;;;;2.15;0.70;;;;;;;23.59;55.78;100217.31;8343063;28;20583;-63
2023/07/20 18:37:25;;;;;;;2.17;0.80;;;;;;;23.53;56.05;100212.72;8350625;28;20454;-63
2023/07/20 18:41:25;;;;;;;1.25;0.88;;;;;;;23.41;56.42;100201.63;8348851;28;20290;-63